香港国際空港 の過去48時間の天気

香港国際空港 (Hong Kong Inter-National Airport)

現在時刻: 9/28 16:36 HKT (9/28 08:36 UTC) 以下の時間は現地時間です。

過去48時間のMETAR気象情報
時間 風向 風速(m/s) 視程 気温(℃) 湿度(%) 気圧(hPa) 天気現象
28 16:30 6 10km以上 29 70 1009
28 16:00 6 10km以上 29 70 1008
28 15:30 東北東 6 10km以上 29 74 1008
28 15:00 東北東 5 10km以上 29 70 1009
28 14:30 5 10km以上 28 74 1009
28 14:00 6 10km以上 29 70 1009
28 13:30 5 10km以上 29 70 1010
28 13:00 5 10km以上 28 74 1010
28 12:30 7 10km以上 29 70 1011
28 12:00 6 10km以上 28 74 1011
28 11:30 7 10km以上 28 74 1011
28 11:00 6 10km以上 28 74 1012
28 10:30 6 10km以上 28 74 1012
28 10:00 5 10km以上 28 74 1011
28 09:30 6 10km以上 28 79 1012 弱いしゅう雨
28 09:00 8 10km以上 28 74 1011
28 08:30 7 10km以上 27 79 1011 弱いしゅう雨
28 08:00 7 10km以上 27 79 1011
28 07:30 6 10km以上 27 79 1010
28 07:00 6 10km以上 27 79 1010
28 06:30 7 10km以上 27 79 1010
28 06:00 東北東 6 10km以上 27 79 1010
28 05:30 5 10km以上 27 79 1010
28 05:00 5 10km以上 27 79 1009
28 04:30 5 10km以上 27 84 1010
28 04:00 6 10km以上 27 84 1009 弱いしゅう雨
28 03:30 東北東 5 10km以上 27 84 1009
28 03:00 東北東 5 10km以上 27 84 1009
28 02:30 4 10km以上 27 84 1010
28 02:00 6 10km以上 27 84 1010
28 01:30 5 10km以上 28 79 1010 弱いしゅう雨
28 01:00 5 10km以上 28 79 1010
28 00:30 6 10km以上 28 79 1011
28 00:00 5 10km以上 28 79 1011
27 23:30 5 10km以上 28 74 1011
27 23:00 6 10km以上 28 74 1011
27 22:30 7 10km以上 29 70 1011
27 22:00 5 10km以上 28 74 1011
27 21:30 6 10km以上 28 74 1011
27 21:00 6 10km以上 28 74 1011
27 20:30 6 10km以上 28 74 1010
27 20:00 7 10km以上 28 74 1010
27 19:30 7 10km以上 28 74 1010
27 19:00 東南東 7 10km以上 28 79 1009
27 18:30 8 10km以上 29 70 1009
27 18:00 7 10km以上 29 74 1009
27 17:30 7 10km以上 29 70 1009
27 17:00 8 10km以上 29 74 1009
27 16:30 7 10km以上 30 70 1009
27 16:00 6 10km以上 30 66 1009
27 15:30 7 10km以上 30 66 1009
27 15:00 7 10km以上 31 62 1009
27 14:30 8 10km以上 30 66 1009
27 14:00 7 10km以上 30 66 1009
27 13:30 8 10km以上 31 62 1010
27 13:00 8 10km以上 31 62 1010
27 12:30 8 10km以上 30 66 1010
27 12:00 9 10km以上 30 66 1011
27 11:30 9 10km以上 30 66 1011
27 11:00 9 10km以上 30 66 1011
27 10:30 9 10km以上 30 66 1011
27 10:00 10 10km以上 30 70 1011
27 09:30 8 10km以上 29 70 1011
27 09:00 7 10km以上 29 70 1011
27 08:30 7 10km以上 29 70 1011
27 08:00 7 10km以上 28 79 1011
27 07:30 6 10km以上 28 79 1010
27 07:00 7 10km以上 28 79 1010
27 06:30 7 10km以上 27 84 1009
27 06:00 7 10km以上 27 79 1009
27 05:30 7 10km以上 28 74 1009
27 05:00 7 10km以上 28 74 1008
27 04:30 5 10km以上 28 74 1008
27 04:00 6 10km以上 28 74 1008
27 03:30 6 10km以上 28 74 1009
27 03:00 6 10km以上 28 79 1009
27 02:30 7 10km以上 28 79 1009
27 02:00 7 10km以上 28 79 1009
27 01:30 7 10km以上 28 79 1009
27 01:00 6 10km以上 29 74 1009
27 00:30 6 10km以上 29 70 1010
27 00:00 8 10km以上 29 70 1010
26 23:30 7 10km以上 29 70 1010
26 23:00 7 10km以上 29 70 1010
26 22:30 8 10km以上 29 70 1011
26 22:00 7 10km以上 29 70 1011
26 21:30 東南東 7 10km以上 29 70 1010
26 21:00 東南東 8 10km以上 29 70 1010
26 20:30 8 10km以上 28 74 1010
26 20:00 東南東 7 10km以上 29 70 1009
26 19:30 東南東 7 10km以上 28 74 1009
26 19:00 東南東 6 10km以上 29 70 1009
26 18:30 東南東 7 10km以上 28 74 1008
26 18:00 東南東 6 10km以上 29 66 1008
26 17:30 東南東 7 10km以上 29 66 1008
26 17:00 東南東 9 10km以上 30 66 1008
VHHH 280830Z 10011KT 9999 FEW015 SCT022 29/23 Q1009 NOSIG
VHHH 280800Z 10011KT 9999 FEW015 SCT022 29/23 Q1008 NOSIG
VHHH 280730Z 07011KT 9999 FEW015 SCT022 29/24 Q1008 NOSIG
VHHH 280700Z 07010KT 9999 FEW015 SCT022 29/23 Q1009 NOSIG
VHHH 280630Z 08009KT 9999 FEW015 SCT024 28/23 Q1009 NOSIG
VHHH 280600Z 10011KT 9999 FEW015 SCT024 29/23 Q1009 NOSIG
VHHH 280530Z 09010KT 9999 FEW015 SCT024 29/23 Q1010 NOSIG
VHHH 280500Z 09010KT 9999 FEW014 SCT024 28/23 Q1010 NOSIG
VHHH 280430Z 10013KT 9999 FEW014 SCT024 29/23 Q1011 NOSIG
VHHH 280400Z 09011KT 9999 FEW014 SCT024 28/23 Q1011 NOSIG
VHHH 280330Z 09013KT 9999 FEW014 SCT022 28/23 Q1011 NOSIG
VHHH 280300Z 10012KT 9999 FEW014 SCT022 28/23 Q1012 NOSIG
VHHH 280230Z 10011KT 9999 FEW014 SCT022 28/23 Q1012 NOSIG
VHHH 280200Z 08010KT 9999 FEW014 SCT022 28/23 Q1011 NOSIG
VHHH 280130Z 09012KT 9999 -SHRA FEW013 SCT022 28/24 Q1012 NOSIG
VHHH 280100Z 08015KT 9999 FEW015 SCT025 28/23 Q1011 NOSIG
VHHH 280030Z 08014KT 9999 -SHRA FEW014 SCT025 27/23 Q1011 NOSIG
VHHH 280000Z 10013KT 9999 FEW014 SCT025 27/23 Q1011 NOSIG
VHHH 272330Z 08011KT 9999 FEW016 SCT025 27/23 Q1010 TEMPO 3500 SHRA FEW010CB SCT020
VHHH 272300Z 08011KT 9999 FEW016 SCT025 27/23 Q1010 TEMPO 3500 SHRA FEW010CB SCT020
VHHH 272230Z 08013KT 9999 FEW016 SCT025 27/23 Q1010 TEMPO 3500 SHRA FEW010CB SCT020
VHHH 272200Z 07011KT 9999 FEW016 SCT025 27/23 Q1010 TEMPO 3500 SHRA FEW010CB SCT020
VHHH 272130Z 09010KT 9999 FEW016 SCT025 27/23 Q1010 TEMPO 3500 SHRA FEW010CB SCT020
VHHH 272100Z 08010KT 9999 FEW016 SCT030 27/23 Q1009 TEMPO 3500 SHRA FEW010CB SCT020
VHHH 272030Z 10010KT 9999 FEW018 SCT030 27/24 Q1010 TEMPO 3500 SHRA FEW010CB SCT020
VHHH 272000Z 09011KT 9999 -SHRA FEW018 SCT030 27/24 Q1009 NOSIG
VHHH 271930Z 07009KT 9999 FEW020 SCT040 27/24 Q1009 NOSIG
VHHH 271900Z 07009KT 9999 FEW020 SCT040 27/24 Q1009 NOSIG
VHHH 271830Z 08008KT 9999 FEW020 SCT040 27/24 Q1010 NOSIG
VHHH 271800Z 09012KT 9999 FEW020 SCT035 27/24 Q1010 NOSIG
VHHH 271730Z 09010KT 9999 -SHRA FEW020 SCT035 28/24 Q1010 NOSIG
VHHH 271700Z 09010KT 9999 FEW020 SCT040 28/24 Q1010 NOSIG
VHHH 271630Z 09011KT 9999 FEW020 SCT045 28/24 Q1011 NOSIG
VHHH 271600Z 08010KT 9999 FEW025 SCT045 28/24 Q1011 NOSIG
VHHH 271530Z 10010KT 9999 FEW025 SCT045 28/23 Q1011 NOSIG
VHHH 271500Z 09012KT 9999 FEW025 SCT045 28/23 Q1011 NOSIG
VHHH 271430Z 09013KT 9999 FEW025 SCT045 29/23 Q1011 NOSIG
VHHH 271400Z 09010KT 9999 FEW018 SCT045 28/23 Q1011 NOSIG
VHHH 271330Z 08011KT 9999 FEW018 SCT045 28/23 Q1011 NOSIG
VHHH 271300Z 08011KT 9999 FEW018 SCT045 28/23 Q1011 NOSIG
VHHH 271230Z 08011KT 9999 FEW018 SCT045 28/23 Q1010 NOSIG
VHHH 271200Z 09013KT 9999 FEW018 SCT045 28/23 Q1010 NOSIG
VHHH 271130Z 10014KT 9999 FEW018 SCT045 28/23 Q1010 NOSIG
VHHH 271100Z 11013KT 9999 FEW018 28/24 Q1009 NOSIG
VHHH 271030Z 10015KT 9999 FEW018 29/23 Q1009 NOSIG
VHHH 271000Z 10013KT 9999 FEW018 29/24 Q1009 NOSIG
VHHH 270930Z 10014KT 9999 FEW015 29/23 Q1009 NOSIG
VHHH 270900Z 10015KT 9999 FEW015 29/24 Q1009 NOSIG
VHHH 270830Z 09013KT 9999 FEW015 30/24 Q1009 NOSIG
VHHH 270800Z 10012KT 9999 FEW015 SCT025 30/23 Q1009 NOSIG
VHHH 270730Z 08014KT 9999 FEW015 SCT028 30/23 Q1009 NOSIG
VHHH 270700Z 10013KT 9999 FEW015 SCT028 31/23 Q1009 NOSIG
VHHH 270630Z 10015KT 9999 FEW018 SCT028 30/23 Q1009 NOSIG
VHHH 270600Z 09014KT 9999 FEW018 30/23 Q1009 NOSIG
VHHH 270530Z 09015KT 070V130 9999 FEW020 31/23 Q1010 NOSIG
VHHH 270500Z 10016KT 9999 FEW022 31/23 Q1010 NOSIG
VHHH 270430Z 10016KT 9999 SCT022 30/23 Q1010 NOSIG
VHHH 270400Z 10018KT 9999 SCT022 30/23 Q1011 NOSIG
VHHH 270330Z 10018KT 9999 FEW022 30/23 Q1011 NOSIG
VHHH 270300Z 09017KT 9999 FEW025 30/23 Q1011 NOSIG
VHHH 270230Z 09018KT 9999 FEW023 30/23 Q1011 NOSIG
VHHH 270200Z 10019KT 9999 FEW023 30/24 Q1011 NOSIG
VHHH 270130Z 10015KT 9999 FEW023 29/23 Q1011 NOSIG
VHHH 270100Z 09014KT 9999 FEW020 SCT028 29/23 Q1011 NOSIG
VHHH 270030Z 08013KT 9999 FEW020 29/23 Q1011 NOSIG
VHHH 270000Z 08013KT 9999 FEW020 28/24 Q1011 NOSIG
VHHH 262330Z 08012KT 9999 FEW015 28/24 Q1010 NOSIG
VHHH 262300Z 09013KT 9999 FEW015 28/24 Q1010 NOSIG
VHHH 262230Z 09014KT 9999 FEW015 27/24 Q1009 NOSIG
VHHH 262200Z 09013KT 9999 FEW020 27/23 Q1009 NOSIG
VHHH 262130Z 10014KT 9999 FEW023 SCT045 28/23 Q1009 NOSIG
VHHH 262100Z 10013KT 9999 FEW023 SCT045 28/23 Q1008 NOSIG
VHHH 262030Z 08010KT 9999 FEW023 SCT045 28/23 Q1008 NOSIG
VHHH 262000Z 10011KT 9999 FEW023 SCT045 28/23 Q1008 NOSIG
VHHH 261930Z 10012KT 9999 FEW023 SCT045 28/23 Q1009 NOSIG
VHHH 261900Z 10012KT 9999 FEW025 SCT045 28/24 Q1009 NOSIG
VHHH 261830Z 09014KT 9999 FEW025 SCT045 28/24 Q1009 NOSIG
VHHH 261800Z 09014KT 9999 FEW025 SCT045 28/24 Q1009 NOSIG
VHHH 261730Z 09013KT 9999 FEW025 SCT045 28/24 Q1009 NOSIG
VHHH 261700Z 10011KT 9999 FEW025 SCT045 29/24 Q1009 NOSIG
VHHH 261630Z 10012KT 9999 FEW023 SCT045 29/23 Q1010 NOSIG
VHHH 261600Z 10015KT 9999 FEW023 SCT045 29/23 Q1010 NOSIG
VHHH 261530Z 10013KT 9999 FEW023 SCT045 29/23 Q1010 NOSIG
VHHH 261500Z 10013KT 080V140 9999 FEW023 SCT045 29/23 Q1010 NOSIG
VHHH 261430Z 10015KT 9999 FEW023 29/23 Q1011 NOSIG
VHHH 261400Z 10014KT 9999 FEW023 SCT035 29/23 Q1011 NOSIG
VHHH 261330Z 11014KT 9999 FEW023 29/23 Q1010 NOSIG
VHHH 261300Z 11015KT 9999 FEW023 29/23 Q1010 NOSIG
VHHH 261230Z 10015KT 9999 FEW025 28/23 Q1010 NOSIG
VHHH 261200Z 11014KT 090V150 9999 FEW025 29/23 Q1009 NOSIG
VHHH 261130Z 11014KT 9999 FEW025 28/23 Q1009 NOSIG
VHHH 261100Z 11012KT 9999 FEW025 29/23 Q1009 NOSIG
VHHH 261030Z 11014KT 080V140 9999 FEW025 28/23 Q1008 NOSIG
VHHH 261000Z 12012KT 100V160 9999 FEW025 29/22 Q1008 NOSIG
VHHH 260930Z 11014KT 090V150 9999 FEW023 29/22 Q1008 NOSIG
VHHH 260900Z 11017KT 9999 FEW023 30/23 Q1008 NOSIG